createdAt,value
2018-06-29T00:04:32.853Z,18.10
2018-06-29T00:07:01.388Z,18.10
2018-06-29T00:11:58.133Z,18.10
2018-06-29T00:14:26.636Z,18.10
2018-06-29T00:16:55.146Z,18.10
2018-06-29T00:19:23.650Z,18.10
2018-06-29T00:21:52.161Z,18.10
2018-06-29T00:24:20.667Z,18.10
2018-06-29T00:26:49.201Z,18.10
2018-06-29T00:29:17.717Z,18.10
2018-06-29T00:36:42.621Z,18.20
2018-06-29T00:39:11.140Z,18.20
2018-06-29T00:41:39.693Z,18.20
2018-06-29T00:44:08.216Z,18.20
2018-06-29T00:46:36.729Z,18.20
2018-06-29T00:49:05.389Z,18.20
2018-06-29T00:51:33.928Z,18.20
2018-06-29T00:54:02.447Z,18.20
2018-06-29T00:56:30.974Z,18.30
2018-06-29T00:58:59.481Z,18.30
2018-06-29T01:01:28.041Z,18.30
2018-06-29T01:03:56.573Z,18.30
2018-06-29T01:08:53.266Z,18.30
2018-06-29T01:11:21.777Z,18.30
2018-06-29T01:13:50.297Z,18.30
2018-06-29T01:16:18.845Z,18.30
2018-06-29T01:18:47.382Z,18.20
2018-06-29T01:21:15.954Z,18.10
2018-06-29T01:23:44.465Z,18.20
2018-06-29T01:26:13.011Z,18.10
2018-06-29T01:28:41.569Z,18.10
2018-06-29T01:31:10.089Z,18.10
2018-06-29T01:33:38.605Z,18.10
2018-06-29T01:36:07.125Z,18.10
2018-06-29T01:38:35.634Z,18.10
2018-06-29T01:41:04.165Z,18.20
2018-06-29T01:43:32.684Z,18.30
2018-06-29T01:46:01.226Z,18.30
2018-06-29T01:48:29.765Z,18.30
2018-06-29T01:50:58.290Z,18.30
2018-06-29T01:53:26.825Z,18.30
2018-06-29T01:55:55.381Z,18.30
2018-06-29T02:00:52.082Z,18.30
2018-06-29T02:03:20.593Z,18.30
2018-06-29T02:05:49.157Z,18.30
2018-06-29T02:08:17.693Z,18.30
2018-06-29T02:10:46.233Z,18.30
2018-06-29T02:13:14.749Z,18.30
2018-06-29T02:18:11.453Z,18.40
2018-06-29T02:20:40.001Z,18.30
2018-06-29T02:23:08.550Z,18.30
2018-06-29T02:25:37.175Z,18.30
2018-06-29T02:28:06.213Z,18.30
2018-06-29T02:30:34.772Z,18.40
2018-06-29T02:33:03.257Z,18.40
2018-06-29T02:35:31.818Z,18.40
2018-06-29T02:38:00.337Z,18.40
2018-06-29T02:40:28.845Z,18.40
2018-06-29T02:42:57.371Z,18.40
2018-06-29T02:45:25.903Z,18.30
2018-06-29T02:47:54.421Z,18.30
2018-06-29T02:50:22.943Z,18.30
2018-06-29T02:52:51.481Z,18.30
2018-06-29T02:55:20.008Z,18.30
2018-06-29T02:57:48.513Z,18.30
2018-06-29T03:00:17.042Z,18.30
2018-06-29T03:02:45.589Z,18.40
2018-06-29T03:05:14.113Z,18.40
2018-06-29T03:07:42.621Z,18.40
2018-06-29T03:10:11.357Z,18.40
2018-06-29T03:15:08.234Z,18.40
2018-06-29T03:17:36.778Z,18.30
2018-06-29T03:20:05.342Z,18.40
2018-06-29T03:22:33.862Z,18.30
2018-06-29T03:25:02.660Z,18.30
2018-06-29T03:27:31.205Z,18.30
2018-06-29T03:29:59.730Z,18.40
2018-06-29T03:32:28.265Z,18.30
2018-06-29T03:34:56.777Z,18.30
2018-06-29T03:37:25.322Z,18.30
2018-06-29T03:39:53.829Z,18.30
2018-06-29T03:42:22.365Z,18.30
2018-06-29T03:44:50.897Z,18.40
2018-06-29T03:47:19.409Z,18.40
2018-06-29T03:52:16.126Z,18.40
2018-06-29T03:54:44.645Z,18.40
2018-06-29T03:57:13.166Z,18.40
2018-06-29T03:59:41.681Z,18.30
2018-06-29T04:02:10.201Z,18.30
2018-06-29T04:04:38.741Z,18.30
2018-06-29T04:07:07.289Z,18.30
2018-06-29T04:09:35.809Z,18.20
2018-06-29T04:12:04.341Z,18.20
2018-06-29T04:14:32.856Z,18.20
2018-06-29T04:17:01.389Z,18.20
2018-06-29T04:19:29.902Z,18.30
2018-06-29T04:21:58.421Z,18.30
2018-06-29T04:24:27.001Z,18.30
2018-06-29T04:26:55.525Z,18.30
2018-06-29T04:29:24.043Z,18.30
2018-06-29T04:31:52.605Z,18.30
2018-06-29T04:34:21.106Z,18.30
2018-06-29T04:36:49.626Z,18.40
2018-06-29T04:39:18.169Z,18.40
2018-06-29T04:41:46.696Z,18.50
2018-06-29T04:46:43.506Z,18.30
2018-06-29T04:49:12.086Z,18.40
2018-06-29T04:51:40.630Z,18.40
2018-06-29T04:54:09.138Z,18.40
2018-06-29T04:56:37.636Z,18.50
2018-06-29T04:59:06.161Z,18.50
2018-06-29T05:01:34.698Z,18.50
2018-06-29T05:04:03.200Z,18.60
2018-06-29T05:06:31.717Z,18.60
2018-06-29T05:11:28.417Z,18.70
2018-06-29T05:13:56.945Z,18.70
2018-06-29T05:16:26.467Z,18.70
2018-06-29T05:21:23.176Z,18.80
2018-06-29T05:23:51.680Z,18.80
2018-06-29T05:26:20.205Z,18.80
2018-06-29T05:28:48.715Z,18.80
2018-06-29T05:31:17.218Z,18.80
2018-06-29T05:33:45.761Z,18.80
2018-06-29T05:36:14.286Z,18.90
2018-06-29T05:38:42.826Z,18.90
2018-06-29T05:41:11.351Z,18.90
2018-06-29T05:43:40.173Z,18.90
2018-06-29T05:46:08.745Z,18.90
2018-06-29T05:48:37.541Z,18.90
2018-06-29T05:51:06.145Z,18.90
2018-06-29T05:53:39.085Z,18.80
2018-06-29T05:56:13.778Z,18.80
2018-06-29T05:58:48.804Z,18.70
2018-06-29T06:01:17.708Z,18.70
2018-06-29T06:03:46.255Z,18.70
2018-06-29T06:06:14.789Z,18.70
2018-06-29T06:08:43.386Z,18.70
2018-06-29T06:11:11.897Z,18.70
2018-06-29T06:13:40.398Z,18.70
2018-06-29T06:16:08.997Z,18.80
2018-06-29T06:18:37.461Z,18.90
2018-06-29T06:21:05.996Z,18.90
2018-06-29T06:23:34.562Z,19.00
2018-06-29T06:26:03.902Z,19.10
2018-06-29T06:31:02.379Z,19.10
2018-06-29T06:33:30.916Z,19.20
2018-06-29T06:35:59.618Z,19.10
2018-06-29T06:38:28.165Z,19.10
2018-06-29T06:40:57.812Z,19.10
2018-06-29T06:43:27.412Z,19.10
2018-06-29T06:45:57.009Z,19.10
2018-06-29T06:48:26.753Z,19.20
2018-06-29T06:50:56.427Z,19.30
2018-06-29T06:53:26.107Z,19.30
2018-06-29T06:55:55.648Z,19.40
2018-06-29T06:58:25.331Z,19.50
2018-06-29T07:00:54.782Z,19.60
2018-06-29T07:03:24.713Z,19.60
2018-06-29T07:05:54.445Z,19.70
2018-06-29T07:08:23.990Z,19.80
2018-06-29T07:10:53.557Z,19.90
2018-06-29T07:13:23.151Z,20.00
2018-06-29T07:18:21.940Z,20.10
2018-06-29T07:20:51.612Z,20.20
2018-06-29T07:23:21.251Z,20.30
2018-06-29T07:25:50.801Z,20.40
2018-06-29T07:28:20.586Z,20.40
2018-06-29T07:30:50.204Z,20.50
2018-06-29T07:33:19.816Z,20.60
2018-06-29T07:35:49.309Z,20.80
2018-06-29T07:38:19.142Z,20.90
2018-06-29T07:40:48.778Z,21.00
2018-06-29T07:43:18.487Z,21.10
2018-06-29T07:45:47.971Z,21.20
2018-06-29T07:48:17.485Z,21.30
2018-06-29T07:50:47.031Z,21.50
2018-06-29T07:53:16.672Z,21.60
2018-06-29T07:55:46.217Z,21.60
2018-06-29T07:58:15.461Z,21.60
2018-06-29T08:00:45.050Z,21.70
2018-06-29T08:03:14.832Z,21.70
2018-06-29T08:05:44.569Z,21.60
2018-06-29T08:08:14.216Z,21.60
2018-06-29T08:10:43.788Z,21.50
2018-06-29T08:13:13.751Z,21.50
2018-06-29T08:15:43.417Z,21.50
2018-06-29T08:18:13.055Z,21.40
2018-06-29T08:20:42.826Z,21.40
2018-06-29T08:23:12.547Z,21.40
2018-06-29T08:25:42.244Z,21.40
2018-06-29T08:28:11.969Z,21.40
2018-06-29T08:30:41.673Z,21.50
2018-06-29T08:33:11.342Z,21.50
2018-06-29T08:35:40.879Z,21.40
2018-06-29T08:38:10.587Z,21.50
2018-06-29T08:40:40.191Z,21.50
2018-06-29T08:43:09.702Z,21.50
2018-06-29T08:45:39.167Z,21.40
2018-06-29T08:48:09.139Z,21.30
2018-06-29T08:50:39.075Z,21.30
2018-06-29T08:53:08.960Z,21.20
2018-06-29T08:55:38.580Z,21.20
2018-06-29T08:58:08.139Z,21.10
2018-06-29T09:00:37.680Z,21.20
2018-06-29T09:03:07.295Z,21.20
2018-06-29T09:05:36.943Z,21.10
2018-06-29T09:08:06.921Z,21.10
2018-06-29T09:10:36.472Z,21.10
2018-06-29T09:13:06.012Z,21.00
2018-06-29T09:15:40.020Z,21.00
2018-06-29T09:18:17.822Z,21.00
2018-06-29T09:20:47.422Z,21.00
2018-06-29T09:23:17.156Z,21.00
2018-06-29T09:25:46.629Z,21.10
2018-06-29T09:28:16.104Z,21.20
2018-06-29T09:30:45.571Z,21.20
2018-06-29T09:33:14.914Z,21.30
2018-06-29T09:35:44.418Z,21.30
2018-06-29T09:38:14.085Z,21.30
2018-06-29T09:40:43.895Z,21.20
2018-06-29T09:43:13.598Z,21.20
2018-06-29T09:45:43.359Z,21.20
2018-06-29T09:48:13.045Z,21.20
2018-06-29T09:50:42.424Z,21.30
2018-06-29T09:53:12.418Z,21.30
2018-06-29T09:55:42.049Z,21.30
2018-06-29T09:58:11.727Z,21.40
2018-06-29T10:00:41.741Z,21.40
2018-06-29T10:03:11.498Z,21.50
2018-06-29T10:05:41.011Z,21.60
2018-06-29T10:08:10.492Z,21.80
2018-06-29T10:10:40.031Z,21.80
2018-06-29T10:13:09.711Z,21.90
2018-06-29T10:15:39.718Z,22.00
2018-06-29T10:18:09.331Z,22.00
2018-06-29T10:20:38.936Z,22.00
2018-06-29T10:23:08.529Z,22.00
2018-06-29T10:25:38.315Z,22.00
2018-06-29T10:28:07.990Z,22.10
2018-06-29T10:30:37.511Z,22.10
2018-06-29T10:33:06.989Z,22.20
2018-06-29T10:35:36.584Z,22.10
2018-06-29T10:38:06.167Z,22.00
2018-06-29T10:40:35.973Z,22.00
2018-06-29T10:43:05.678Z,22.00
2018-06-29T10:48:04.489Z,21.90
2018-06-29T10:50:34.349Z,22.00
2018-06-29T10:53:03.606Z,22.00
2018-06-29T10:55:33.444Z,21.90
2018-06-29T10:58:03.233Z,22.00
2018-06-29T11:00:32.836Z,22.00
2018-06-29T11:03:02.465Z,22.00
2018-06-29T11:05:31.986Z,21.90
2018-06-29T11:08:02.302Z,21.80
2018-06-29T11:10:31.883Z,21.80
2018-06-29T11:13:01.600Z,21.80
2018-06-29T11:15:31.127Z,21.80
2018-06-29T11:18:01.465Z,21.90
2018-06-29T11:20:30.922Z,21.90
2018-06-29T11:23:00.536Z,21.80
2018-06-29T11:25:30.166Z,21.90
2018-06-29T11:27:59.649Z,21.90
2018-06-29T11:30:29.401Z,21.90
2018-06-29T11:32:58.839Z,21.90
2018-06-29T11:35:28.412Z,21.90
2018-06-29T11:37:58.183Z,21.90
2018-06-29T11:40:28.319Z,22.00
2018-06-29T11:42:57.966Z,22.00
2018-06-29T11:45:27.635Z,22.10
2018-06-29T11:47:57.119Z,22.30
2018-06-29T11:50:26.724Z,22.50
2018-06-29T11:52:56.495Z,22.70
2018-06-29T11:55:26.225Z,23.00
2018-06-29T11:57:55.778Z,23.10
2018-06-29T12:00:25.691Z,23.30
2018-06-29T12:02:55.208Z,23.50
2018-06-29T12:05:24.972Z,23.50
2018-06-29T12:07:54.812Z,23.40
2018-06-29T12:10:24.345Z,23.40
2018-06-29T12:12:53.980Z,23.30
2018-06-29T12:15:23.477Z,23.10
2018-06-29T12:17:53.482Z,23.00
2018-06-29T12:20:23.067Z,22.90
2018-06-29T12:22:52.524Z,22.70
2018-06-29T12:25:21.076Z,22.60
2018-06-29T12:27:49.593Z,22.60
2018-06-29T12:30:18.131Z,22.50
2018-06-29T12:32:46.685Z,22.50
2018-06-29T12:35:15.189Z,22.40
2018-06-29T12:37:43.722Z,22.40
2018-06-29T12:40:12.271Z,22.30
2018-06-29T12:42:40.865Z,22.20
2018-06-29T12:45:09.410Z,22.10
2018-06-29T12:47:37.922Z,22.10
2018-06-29T12:50:06.696Z,21.90
2018-06-29T12:52:35.201Z,21.80
2018-06-29T12:55:05.336Z,21.70
2018-06-29T12:57:33.837Z,21.70
2018-06-29T13:00:02.384Z,21.60
2018-06-29T13:02:31.963Z,21.60
2018-06-29T13:05:01.474Z,21.50
2018-06-29T13:07:31.094Z,21.50
2018-06-29T13:10:00.847Z,21.40
2018-06-29T13:12:30.311Z,21.40
2018-06-29T13:15:00.028Z,21.50
2018-06-29T13:17:29.486Z,21.40
2018-06-29T13:19:59.290Z,21.40
2018-06-29T13:22:29.018Z,21.40
2018-06-29T13:24:58.573Z,21.40
2018-06-29T13:27:28.035Z,21.40
2018-06-29T13:29:57.622Z,21.30
2018-06-29T13:32:27.284Z,21.30
2018-06-29T13:34:57.251Z,21.30
2018-06-29T13:37:26.714Z,21.40
2018-06-29T13:39:55.254Z,21.40
2018-06-29T13:42:23.777Z,21.40
2018-06-29T13:44:52.273Z,21.50
2018-06-29T13:47:20.822Z,21.50
2018-06-29T13:49:49.349Z,21.60
2018-06-29T13:52:17.905Z,21.70
2018-06-29T13:54:46.480Z,21.80
2018-06-29T13:57:15.133Z,21.80
2018-06-29T13:59:43.658Z,22.00
2018-06-29T14:02:12.165Z,22.00
2018-06-29T14:04:40.689Z,22.10
2018-06-29T14:07:09.221Z,22.10
2018-06-29T14:09:37.766Z,22.20
2018-06-29T14:12:06.286Z,22.30
2018-06-29T14:14:34.813Z,22.20
2018-06-29T14:17:03.384Z,22.30
2018-06-29T14:19:31.909Z,22.30
2018-06-29T14:22:00.421Z,22.30
2018-06-29T14:24:28.945Z,22.40
2018-06-29T14:26:57.454Z,22.40
2018-06-29T14:29:25.981Z,22.40
2018-06-29T14:31:54.493Z,22.50
2018-06-29T14:34:22.993Z,22.50
2018-06-29T14:36:51.497Z,22.60
2018-06-29T14:39:20.001Z,22.60
2018-06-29T14:41:48.526Z,22.60
2018-06-29T14:44:17.061Z,22.60
2018-06-29T14:46:45.593Z,22.50
2018-06-29T14:49:14.165Z,22.60
2018-06-29T14:51:42.685Z,22.50
2018-06-29T14:54:11.182Z,22.50
2018-06-29T14:56:39.706Z,22.40
2018-06-29T14:59:08.221Z,22.40
2018-06-29T15:01:36.726Z,22.30
2018-06-29T15:04:05.313Z,22.30
2018-06-29T15:06:33.820Z,22.20
2018-06-29T15:09:02.411Z,22.20
2018-06-29T15:11:30.921Z,22.20
2018-06-29T15:13:59.493Z,22.20
2018-06-29T15:16:28.014Z,22.20
2018-06-29T15:18:56.517Z,22.20
2018-06-29T15:21:25.027Z,22.20
2018-06-29T15:23:53.552Z,22.20
2018-06-29T15:26:22.058Z,22.20
2018-06-29T15:28:50.569Z,22.30
2018-06-29T15:31:19.192Z,22.30
2018-06-29T15:33:47.669Z,22.30
2018-06-29T15:36:16.181Z,22.30
2018-06-29T15:38:44.737Z,22.40
2018-06-29T15:41:13.281Z,22.40
2018-06-29T15:43:41.796Z,22.50
2018-06-29T15:46:10.321Z,22.50
2018-06-29T15:48:38.852Z,22.40
2018-06-29T15:51:07.449Z,22.50
2018-06-29T15:53:35.972Z,22.50
2018-06-29T15:56:04.820Z,22.50
2018-06-29T15:58:33.346Z,22.50
2018-06-29T16:01:01.979Z,22.40
2018-06-29T16:03:30.496Z,22.40
2018-06-29T16:05:59.269Z,22.40
2018-06-29T16:08:27.805Z,22.30
2018-06-29T16:10:56.353Z,22.30
2018-06-29T16:13:24.870Z,22.30
2018-06-29T16:15:53.377Z,22.30
2018-06-29T16:18:21.914Z,22.30
2018-06-29T16:20:50.424Z,22.30
2018-06-29T16:23:18.965Z,22.30
2018-06-29T16:25:47.477Z,22.40
2018-06-29T16:28:16.001Z,22.40
2018-06-29T16:30:44.513Z,22.40
2018-06-29T16:33:13.037Z,22.40
2018-06-29T16:35:42.426Z,22.40
2018-06-29T16:38:10.939Z,22.30
2018-06-29T16:40:39.712Z,22.40
2018-06-29T16:43:08.211Z,22.30
2018-06-29T16:45:36.814Z,22.40
2018-06-29T16:48:05.965Z,22.30
2018-06-29T16:53:02.701Z,22.40
2018-06-29T16:55:31.216Z,22.40
2018-06-29T16:57:59.721Z,22.40
2018-06-29T17:00:28.248Z,22.40
2018-06-29T17:02:56.781Z,22.40
2018-06-29T17:05:25.357Z,22.40
2018-06-29T17:07:53.870Z,22.40
2018-06-29T17:10:22.373Z,22.40
2018-06-29T17:12:50.877Z,22.30
2018-06-29T17:15:19.402Z,22.30
2018-06-29T17:17:47.921Z,22.20
2018-06-29T17:20:16.444Z,22.20
2018-06-29T17:27:41.362Z,22.10
2018-06-29T17:30:09.893Z,22.10
2018-06-29T17:32:38.397Z,22.00
2018-06-29T17:35:06.965Z,22.00
2018-06-29T17:37:35.477Z,22.00
2018-06-29T17:40:04.103Z,22.00
2018-06-29T17:42:32.633Z,21.90
2018-06-29T17:45:01.166Z,22.00
2018-06-29T17:47:30.078Z,22.00
2018-06-29T17:49:58.602Z,22.00
2018-06-29T17:52:27.117Z,21.90
2018-06-29T17:54:55.656Z,21.80
2018-06-29T17:57:24.197Z,21.80
2018-06-29T17:59:52.747Z,21.80
2018-06-29T18:02:21.246Z,21.70
2018-06-29T18:04:49.757Z,21.70
2018-06-29T18:07:18.297Z,21.60
2018-06-29T18:09:46.830Z,21.60
2018-06-29T18:12:15.425Z,21.60
2018-06-29T18:14:43.940Z,21.50
2018-06-29T18:17:12.464Z,21.40
2018-06-29T18:19:41.314Z,21.40
2018-06-29T18:22:09.854Z,21.40
2018-06-29T18:24:38.626Z,21.40
2018-06-29T18:27:07.366Z,21.30
2018-06-29T18:29:36.178Z,21.20
2018-06-29T18:32:04.803Z,21.20
2018-06-29T18:34:33.563Z,21.20
2018-06-29T18:37:02.310Z,21.20
2018-06-29T18:39:30.978Z,21.20
2018-06-29T18:41:59.704Z,21.10
2018-06-29T18:44:28.295Z,21.00
2018-06-29T18:46:56.928Z,21.00
2018-06-29T18:49:25.579Z,21.00
2018-06-29T18:51:54.238Z,21.00
2018-06-29T18:54:22.940Z,21.00
2018-06-29T18:56:51.695Z,20.90
2018-06-29T18:59:20.419Z,20.90
2018-06-29T19:01:49.047Z,20.90
2018-06-29T19:04:17.885Z,20.80
2018-06-29T19:06:46.594Z,20.80
2018-06-29T19:09:15.289Z,20.70
2018-06-29T19:11:43.946Z,20.70
2018-06-29T19:14:12.693Z,20.70
2018-06-29T19:16:41.384Z,20.70
2018-06-29T19:19:10.098Z,20.70
2018-06-29T19:21:38.824Z,20.80
2018-06-29T19:24:07.423Z,20.80
2018-06-29T19:26:36.112Z,20.70
2018-06-29T19:29:04.661Z,20.80
2018-06-29T19:31:33.333Z,20.80
2018-06-29T19:34:01.987Z,20.80
2018-06-29T19:36:30.637Z,20.70
2018-06-29T19:38:59.419Z,20.70
2018-06-29T19:41:28.004Z,20.70
2018-06-29T19:43:56.719Z,20.70
2018-06-29T19:46:25.363Z,20.70
2018-06-29T19:48:53.966Z,20.70
2018-06-29T19:51:22.794Z,20.70
2018-06-29T19:53:51.397Z,20.60
2018-06-29T19:56:19.982Z,20.60
2018-06-29T19:58:48.599Z,20.60
2018-06-29T20:01:17.359Z,20.60
2018-06-29T20:03:46.058Z,20.50
2018-06-29T20:06:14.783Z,20.50
2018-06-29T20:08:43.378Z,20.50
2018-06-29T20:11:12.378Z,20.50
2018-06-29T20:13:41.206Z,20.50
2018-06-29T20:16:09.832Z,20.50
2018-06-29T20:18:38.515Z,20.40
2018-06-29T20:21:07.238Z,20.40
2018-06-29T20:23:35.789Z,20.30
2018-06-29T20:26:04.372Z,20.40
2018-06-29T20:28:32.869Z,20.40
2018-06-29T20:31:04.885Z,20.30
2018-06-29T20:33:33.470Z,20.40
2018-06-29T20:36:02.009Z,20.40
2018-06-29T20:38:30.640Z,20.40
2018-06-29T20:40:59.117Z,20.40
2018-06-29T20:43:27.633Z,20.40
2018-06-29T20:45:56.146Z,20.40
2018-06-29T20:48:24.691Z,20.40
2018-06-29T20:50:53.218Z,20.40
2018-06-29T20:53:22.097Z,20.40
2018-06-29T20:55:50.768Z,20.50
2018-06-29T20:58:19.282Z,20.50
2018-06-29T21:00:47.853Z,20.50
2018-06-29T21:03:16.369Z,20.60
2018-06-29T21:05:44.913Z,20.60
2018-06-29T21:08:13.505Z,20.50
2018-06-29T21:10:42.092Z,20.50
2018-06-29T21:13:10.977Z,20.50
2018-06-29T21:15:39.556Z,20.40
2018-06-29T21:20:36.480Z,20.50
2018-06-29T21:23:05.021Z,20.50
2018-06-29T21:25:33.677Z,20.50
2018-06-29T21:28:02.184Z,20.50
2018-06-29T21:31:59.902Z,20.50
2018-06-29T21:34:28.629Z,20.50
2018-06-29T21:36:57.190Z,20.50
2018-06-29T21:39:25.689Z,20.50
2018-06-29T21:41:54.198Z,20.50
2018-06-29T21:44:22.735Z,20.60
2018-06-29T21:46:51.269Z,20.60
2018-06-29T21:49:19.789Z,20.60
2018-06-29T21:51:48.297Z,20.50
2018-06-29T21:54:16.889Z,20.50
2018-06-29T21:56:45.409Z,20.50
2018-06-29T21:59:13.921Z,20.60
2018-06-29T22:01:42.453Z,20.60
2018-06-29T22:04:10.990Z,20.60
2018-06-29T22:06:39.554Z,20.50
2018-06-29T22:09:09.121Z,20.50
2018-06-29T22:11:37.797Z,20.50
2018-06-29T22:14:06.609Z,20.50
2018-06-29T22:16:35.157Z,20.50
2018-06-29T22:19:03.738Z,20.50
2018-06-29T22:21:32.286Z,20.50
2018-06-29T22:24:00.826Z,20.50
2018-06-29T22:26:29.365Z,20.50
2018-06-29T22:28:57.914Z,20.40
2018-06-29T22:31:26.675Z,20.40
2018-06-29T22:36:23.404Z,20.40
2018-06-29T22:38:51.929Z,20.40
2018-06-29T22:41:20.445Z,20.40
2018-06-29T22:43:48.941Z,20.40
2018-06-29T22:46:17.494Z,20.40
2018-06-29T22:48:45.997Z,20.40
2018-06-29T22:51:14.513Z,20.40
2018-06-29T22:53:43.041Z,20.40
2018-06-29T22:56:11.545Z,20.40
2018-06-29T22:58:40.188Z,20.40
2018-06-29T23:01:08.729Z,20.40
2018-06-29T23:03:42.698Z,20.40
2018-06-29T23:06:11.221Z,20.40
2018-06-29T23:08:39.844Z,20.30
2018-06-29T23:11:08.362Z,20.30
2018-06-29T23:13:36.869Z,20.30
2018-06-29T23:16:05.489Z,20.30
2018-06-29T23:18:34.031Z,20.30
2018-06-29T23:21:02.622Z,20.20
2018-06-29T23:23:31.140Z,20.20
2018-06-29T23:25:59.685Z,20.20
2018-06-29T23:28:28.309Z,20.20
2018-06-29T23:30:56.980Z,20.10
2018-06-29T23:33:25.493Z,20.10
2018-06-29T23:35:54.019Z,20.00
2018-06-29T23:38:22.525Z,20.00
2018-06-29T23:40:51.036Z,20.00
2018-06-29T23:43:19.554Z,20.00
2018-06-29T23:45:48.060Z,20.00
2018-06-29T23:48:16.585Z,20.00
2018-06-29T23:50:45.109Z,19.90
2018-06-29T23:53:13.618Z,19.90
2018-06-29T23:55:42.135Z,19.90
2018-06-29T23:58:10.645Z,19.90
